Hauptseite
METAR-TAF:

METAR-TAF

Flughäfen :

RAF Wittering

Wittering, England

Breite: 52-37N, Länge: 000-28W, Höhe: 84 m

Beobachtung

Neuester Wetterbericht von vor 1 Stunde und 5 Minuten, um 10:50 UTC
Wind 6 kt aus Nordwest
Temperatur 20°C
Luftfeuchtigkeit 53%
Luftdruck 1035 hPa
Sichtweite 10 km oder mehr
Durchbrochene Bewölkung in der Höhe von 4700 ft

METAR: EGXT 271050Z 32006KT 9999 BKN047 20/10 Q1035 RMK BLU

Zeit: 12:55 (11:55 UTC)

Prognose

Neuester Wetterbericht von vor 1 Stunde und 18 Minuten, um 10:37 UTC
Gültige Prognose vom 27 um 12 UTC bis 27 um 18 UTC
Wind 6 kt aus Nord/Nordwest
Sichtweite 10 km oder mehr
Aufgelockert bewölkt in der Höhe von 4500 ft

TAF: EGXT 271037Z 2712/2718 34006KT 9999 SCT045

Wetterbeobachtungen und Prognosen von mehr als 4000 Flughäfen (METAR und TAF Bericht).

Die verfügbaren Stationen werden durch gelbe und rote Markierungen auf der Karte dargestellt.

Führen Sie die Maus auf sie, um den Namen der Station zu sehen.

Darauf klicken, um die Beobachtung von Wetterbeobachtungen und Prognosen zu sehen.

Um die Karte zu ändern : klicken Sie auf den grünen Tasten mit einem schwarzen Kreuz Zum Vergrößern, auf den grünen Button mit einem Gedankenstrich zu verkleinern, oder auf die grünen Pfeile für benachbarte Karten.


METAR-TAF: